Crew | Aerofun Virtual



 METAR AND TAF INFORMATION
METAR FOR EFMA
ADDS - METARS form results

(0457 UTC 20 May 2019)
Data provider http://aviationweather.gov/metar/data/
 
METAR text: EFMA 200450Z AUTO 07004KT 020V100 CAVOK 13/08 Q1012
Conditions at: EFMA (MARIEHAMN/ALAND , FI) observed 0450 UTC 20 May 2019
Temperature: 13.0°C (55°F)
Dewpoint: 8.0°C (46°F) [RH = 72%]
Pressure (altimeter): 29.88 inches Hg (1012.0 mb)
Winds: from the ENE (70 degrees) at 5 MPH (4 knots; 2.1 m/s)
Visibility: 6 or more miles (10+ km)
Ceiling: ceiling and visibility are OK
Clouds: unknown
Weather: no significant weather observed at this time

METAR text: EFMA 200420Z AUTO 08003KT 050V120 CAVOK 13/08 Q1012
Conditions at: EFMA (MARIEHAMN/ALAND , FI) observed 0420 UTC 20 May 2019
Temperature: 13.0°C (55°F)
Dewpoint: 8.0°C (46°F) [RH = 72%]
Pressure (altimeter): 29.88 inches Hg (1012.0 mb)
Winds: from the E (80 degrees) at 3 MPH (3 knots; 1.5 m/s)
Visibility: 6 or more miles (10+ km)
Ceiling: ceiling and visibility are OK
Clouds: unknown
Weather: no significant weather observed at this time

Forecast for: EFMA (MARIEHAMN/ALAND , FI)
Text: TAF EFMA 200236Z 2003/2012 36004KT CAVOK
Forecast period: 0300 to 1200 UTC 20 May 2019
Forecast type: FROM: standard forecast or significant change
Winds: from the N (360 degrees) at 5 MPH (4 knots; 2.1 m/s)
Visibility: 6 or more miles 10+ km)
Ceiling: unknown
Clouds: missing
Weather: NSW  (no significant weather)
Text: PROB40
Forecast period: 1000 to 1200 UTC 20 May 2019
Forecast type: TEMPORARY: The following changes expected for less than half the time period
Visibility: missing
Ceiling: 5000 feet AGL
Clouds: broken clouds at 5000 feet AGL
Weather: no significant weather forecast for this period

 AIRPORT MAP

 RUNWAY INFORMATION
Runway 03 Runway length 6243 ft Runway width 197 ft
Runway elevation 4 ft Runway displaced threshold 0 ft Runway heading 23
Runway 21 Runway length 6243 ft Runway width 197 ft
Runway elevation 17 ft Runway displaced threshold 0 ft Runway heading 203

 AIRPORT FREQUENCIES
Type ATIS Name ATIS Frequency 114.7 MHZ
Type TWR Name TWR Frequency 119.6 MHZ

 AIRPORT NEAR NAVIGATION AIDS
Type VOR-DME Name Marie Frequency 114700 KHZ